createdAt,value
2023-05-19T00:00:47.556Z,41.41
2023-05-19T00:03:15.281Z,41.62
2023-05-19T00:05:45.507Z,41.75
2023-05-19T00:08:14.059Z,41.73
2023-05-19T00:10:40.926Z,41.72
2023-05-19T00:13:08.143Z,41.68
2023-05-19T00:15:35.414Z,41.71
2023-05-19T00:18:02.091Z,41.67
2023-05-19T00:20:28.713Z,41.72
2023-05-19T00:22:55.501Z,41.72
2023-05-19T00:25:22.071Z,41.75
2023-05-19T00:27:49.053Z,41.64
2023-05-19T00:30:15.861Z,41.78
2023-05-19T00:32:42.430Z,41.72
2023-05-19T00:35:09.434Z,41.74
2023-05-19T00:37:36.003Z,41.82
2023-05-19T00:40:02.596Z,41.67
2023-05-19T00:42:29.164Z,41.91
2023-05-19T00:44:55.970Z,41.87
2023-05-19T00:47:22.579Z,41.95
2023-05-19T00:49:49.166Z,41.82
2023-05-19T00:52:15.702Z,41.93
2023-05-19T00:54:43.458Z,41.80
2023-05-19T00:57:10.405Z,41.86
2023-05-19T00:59:37.236Z,41.88
2023-05-19T01:02:03.898Z,41.87
2023-05-19T01:04:34.903Z,41.84
2023-05-19T01:07:01.684Z,41.97
2023-05-19T01:09:28.370Z,41.91
2023-05-19T01:11:54.936Z,41.87
2023-05-19T01:14:21.832Z,42.06
2023-05-19T01:17:23.940Z,41.84
2023-05-19T01:20:22.114Z,41.77
2023-05-19T01:23:05.141Z,41.85
2023-05-19T01:25:53.316Z,41.99
2023-05-19T01:28:36.876Z,41.88
2023-05-19T01:31:06.259Z,41.99
2023-05-19T01:33:55.302Z,42.07
2023-05-19T01:36:58.192Z,42.09
2023-05-19T01:39:36.356Z,42.00
2023-05-19T01:42:29.686Z,41.99
2023-05-19T01:45:20.057Z,41.97
2023-05-19T01:47:58.185Z,42.05
2023-05-19T01:56:30.435Z,42.23
2023-05-19T02:02:43.856Z,42.09
2023-05-19T02:06:03.416Z,42.10
2023-05-19T02:09:02.266Z,42.21
2023-05-19T02:11:47.704Z,42.19
2023-05-19T02:14:50.254Z,42.24
2023-05-19T02:17:28.942Z,42.31
2023-05-19T02:20:10.614Z,42.25
2023-05-19T02:22:48.408Z,42.34
2023-05-19T02:25:34.651Z,42.24
2023-05-19T02:28:10.564Z,42.30
2023-05-19T02:30:56.383Z,42.40
2023-05-19T02:33:34.224Z,42.36
2023-05-19T02:36:18.970Z,42.25
2023-05-19T02:39:17.798Z,42.19
2023-05-19T02:41:47.709Z,42.24
2023-05-19T02:44:20.444Z,42.31
2023-05-19T02:46:48.597Z,42.17
2023-05-19T02:49:46.270Z,42.39
2023-05-19T02:52:17.467Z,42.20
2023-05-19T03:00:42.600Z,42.46
2023-05-19T03:03:23.651Z,42.35
2023-05-19T03:06:09.584Z,42.37
2023-05-19T03:08:42.620Z,42.48
2023-05-19T03:11:22.295Z,42.38
2023-05-19T03:13:51.698Z,42.35
2023-05-19T03:16:31.559Z,42.44
2023-05-19T03:19:05.310Z,42.37
2023-05-19T03:21:42.795Z,42.44
2023-05-19T03:24:12.376Z,42.29
2023-05-19T03:26:47.111Z,42.32
2023-05-19T03:29:26.656Z,42.45
2023-05-19T03:32:09.192Z,42.56
2023-05-19T03:34:44.625Z,42.41
2023-05-19T03:37:46.714Z,42.45
2023-05-19T03:40:23.847Z,42.66
2023-05-19T03:43:02.602Z,42.40
2023-05-19T03:45:36.218Z,42.61
2023-05-19T03:48:24.829Z,42.53
2023-05-19T03:50:54.301Z,42.53
2023-05-19T03:54:03.593Z,42.56
2023-05-19T03:56:30.409Z,42.61
2023-05-19T03:59:06.018Z,42.50
2023-05-19T04:01:50.954Z,42.55
2023-05-19T04:04:24.295Z,42.67
2023-05-19T04:07:07.348Z,42.50
2023-05-19T04:09:53.785Z,42.78
2023-05-19T04:12:35.056Z,42.68
2023-05-19T04:20:45.499Z,42.79
2023-05-19T04:23:17.392Z,42.62
2023-05-19T04:25:54.519Z,42.63
2023-05-19T04:28:45.684Z,42.70
2023-05-19T04:31:26.076Z,42.77
2023-05-19T04:34:08.333Z,42.53
2023-05-19T04:36:37.660Z,42.83
2023-05-19T04:42:05.373Z,42.79
2023-05-19T04:44:35.212Z,42.97
2023-05-19T04:47:04.931Z,42.75
2023-05-19T04:49:43.518Z,42.77
2023-05-19T04:52:30.850Z,42.76
2023-05-19T05:01:03.334Z,42.73
2023-05-19T05:03:38.764Z,42.96
2023-05-19T05:09:27.229Z,42.96
2023-05-19T05:12:01.374Z,42.73
2023-05-19T05:14:38.786Z,42.77
2023-05-19T05:17:06.325Z,42.98
2023-05-19T05:19:51.070Z,42.95
2023-05-19T05:22:33.337Z,42.90
2023-05-19T05:25:06.678Z,43.03
2023-05-19T05:27:40.984Z,42.90
2023-05-19T05:33:02.821Z,42.75
2023-05-19T05:35:33.941Z,42.67
2023-05-19T05:38:18.897Z,42.63
2023-05-19T05:40:49.904Z,42.56
2023-05-19T05:43:25.280Z,42.52
2023-05-19T05:45:56.946Z,42.41
2023-05-19T05:48:40.440Z,42.55
2023-05-19T05:52:06.211Z,42.65
2023-05-19T05:54:34.790Z,42.44
2023-05-19T05:57:11.145Z,42.46
2023-05-19T05:59:51.627Z,42.63
2023-05-19T06:02:25.579Z,42.30
2023-05-19T06:04:59.830Z,42.53
2023-05-19T06:07:32.028Z,42.39
2023-05-19T06:10:12.952Z,42.34
2023-05-19T06:15:49.594Z,42.36
2023-05-19T06:18:37.529Z,42.46
2023-05-19T06:21:13.024Z,42.25
2023-05-19T06:24:06.476Z,42.19
2023-05-19T06:26:49.836Z,42.46
2023-05-19T06:29:23.644Z,42.31
2023-05-19T06:32:07.074Z,42.29
2023-05-19T06:34:38.434Z,42.25
2023-05-19T06:37:24.572Z,42.28
2023-05-19T06:39:58.725Z,42.34
2023-05-19T06:42:33.051Z,42.33
2023-05-19T06:45:07.394Z,42.03
2023-05-19T06:50:44.434Z,42.24
2023-05-19T06:56:12.549Z,42.18
2023-05-19T06:59:10.559Z,42.21
2023-05-19T07:01:40.226Z,42.21
2023-05-19T07:04:09.759Z,42.07
2023-05-19T07:06:47.113Z,42.25
2023-05-19T07:09:16.443Z,42.14
2023-05-19T07:14:31.499Z,41.77
2023-05-19T07:17:09.632Z,42.01
2023-05-19T07:19:44.694Z,41.93
2023-05-19T07:22:17.324Z,41.67
2023-05-19T07:25:37.069Z,41.50
2023-05-19T07:29:23.995Z,41.56
2023-05-19T07:34:46.681Z,41.73
2023-05-19T07:43:41.306Z,41.36
2023-05-19T07:49:04.189Z,41.63
2023-05-19T07:51:53.813Z,41.27
2023-05-19T07:57:34.228Z,41.27
2023-05-19T08:03:07.302Z,41.03
2023-05-19T08:05:46.037Z,40.94
2023-05-19T08:08:24.179Z,41.33
2023-05-19T08:10:58.737Z,41.14
2023-05-19T08:13:50.310Z,40.95
2023-05-19T08:16:36.751Z,40.81
2023-05-19T08:19:07.982Z,41.29
2023-05-19T08:21:38.155Z,41.28
2023-05-19T08:24:16.928Z,41.34
2023-05-19T08:26:54.531Z,41.18
2023-05-19T08:29:24.285Z,41.56
2023-05-19T08:32:40.847Z,41.26
2023-05-19T08:34:57.910Z,41.19
2023-05-19T08:37:54.081Z,41.27
2023-05-19T08:43:07.231Z,41.33
2023-05-19T08:45:46.881Z,40.97
2023-05-19T08:51:37.836Z,40.89
2023-05-19T08:54:54.100Z,41.09
2023-05-19T09:00:49.744Z,41.05
2023-05-19T09:03:34.711Z,41.16
2023-05-19T09:06:03.973Z,40.98
2023-05-19T09:08:59.883Z,40.83
2023-05-19T09:14:55.498Z,41.09
2023-05-19T09:20:28.844Z,40.75
2023-05-19T09:23:18.893Z,40.51
2023-05-19T09:26:11.079Z,40.62
2023-05-19T09:29:03.077Z,40.29
2023-05-19T09:31:50.754Z,40.66
2023-05-19T09:37:39.500Z,40.61
2023-05-19T09:40:59.701Z,40.79
2023-05-19T09:50:17.369Z,40.50
2023-05-19T09:53:06.007Z,40.43
2023-05-19T09:59:24.810Z,40.23
2023-05-19T10:02:33.853Z,40.61
2023-05-19T10:05:15.730Z,40.61
2023-05-19T10:08:22.222Z,40.49
2023-05-19T10:11:40.221Z,39.94
2023-05-19T10:17:08.948Z,40.37
2023-05-19T10:33:14.379Z,39.90
2023-05-19T10:36:23.476Z,40.53
2023-05-19T10:42:25.597Z,40.93
2023-05-19T10:48:41.544Z,40.54
2023-05-19T10:54:20.121Z,40.12
2023-05-19T11:00:32.099Z,40.96
2023-05-19T11:03:44.579Z,41.15
2023-05-19T11:12:55.035Z,40.84
2023-05-19T11:15:43.293Z,40.44
2023-05-19T11:18:21.340Z,40.76
2023-05-19T11:21:12.597Z,41.09
2023-05-19T11:24:33.944Z,40.96
2023-05-19T11:27:23.598Z,41.25
2023-05-19T11:33:10.449Z,41.31
2023-05-19T11:35:52.556Z,40.82
2023-05-19T11:38:30.491Z,41.43
2023-05-19T11:41:10.392Z,41.37
2023-05-19T11:44:00.480Z,41.15
2023-05-19T11:59:04.751Z,40.88
2023-05-19T12:04:41.888Z,41.34
2023-05-19T12:07:29.260Z,41.35
2023-05-19T12:13:16.677Z,40.80
2023-05-19T12:19:37.080Z,41.31
2023-05-19T12:22:11.366Z,41.18
2023-05-19T12:25:28.086Z,40.31
2023-05-19T12:32:13.814Z,41.20
2023-05-19T12:38:09.731Z,39.26
2023-05-19T12:48:04.697Z,40.64
2023-05-19T12:51:00.568Z,40.54
2023-05-19T12:54:19.883Z,40.31
2023-05-19T12:57:32.372Z,40.89
2023-05-19T13:03:27.719Z,40.06
2023-05-19T13:06:02.304Z,41.00
2023-05-19T13:16:29.075Z,40.04
2023-05-19T13:19:43.555Z,40.77
2023-05-19T13:29:10.150Z,41.45
2023-05-19T13:35:26.577Z,41.51
2023-05-19T13:38:20.813Z,41.65
2023-05-19T13:47:04.137Z,40.98
2023-05-19T13:50:49.194Z,41.14
2023-05-19T13:53:59.437Z,41.29
2023-05-19T13:56:31.655Z,41.45
2023-05-19T13:59:19.344Z,40.85
2023-05-19T14:01:56.209Z,41.38
2023-05-19T14:04:36.470Z,41.14
2023-05-19T14:07:28.410Z,41.11
2023-05-19T14:10:22.930Z,40.92
2023-05-19T14:16:32.906Z,40.90
2023-05-19T14:19:49.271Z,41.03
2023-05-19T14:22:18.391Z,41.18
2023-05-19T14:30:20.197Z,41.00
2023-05-19T14:32:46.981Z,40.93
2023-05-19T14:36:11.773Z,40.63
2023-05-19T14:42:46.602Z,40.79
2023-05-19T14:45:25.859Z,40.67
2023-05-19T14:50:59.568Z,40.55
2023-05-19T14:53:29.040Z,40.60
2023-05-19T14:56:06.914Z,40.63
2023-05-19T14:58:42.455Z,40.54
2023-05-19T15:04:23.166Z,40.66
2023-05-19T15:10:05.262Z,40.38
2023-05-19T15:12:44.746Z,40.58
2023-05-19T15:16:16.210Z,40.75
2023-05-19T15:19:16.434Z,40.75
2023-05-19T15:21:53.646Z,40.73
2023-05-19T15:24:23.042Z,40.56
2023-05-19T15:27:01.150Z,40.79
2023-05-19T15:29:37.944Z,40.45
2023-05-19T15:32:13.019Z,40.36
2023-05-19T15:34:49.884Z,40.37
2023-05-19T15:47:03.080Z,40.66
2023-05-19T15:49:57.183Z,40.47
2023-05-19T15:52:37.912Z,40.83
2023-05-19T16:00:10.949Z,40.32
2023-05-19T16:01:53.009Z,40.70
2023-05-19T16:04:40.949Z,40.55
2023-05-19T16:07:16.552Z,40.88
2023-05-19T16:10:28.001Z,40.65
2023-05-19T16:13:10.338Z,40.76
2023-05-19T16:19:03.455Z,40.82
2023-05-19T16:24:39.867Z,41.16
2023-05-19T16:27:22.373Z,41.31
2023-05-19T16:30:25.602Z,40.85
2023-05-19T16:38:48.090Z,41.04
2023-05-19T16:41:21.835Z,41.22
2023-05-19T16:44:19.082Z,41.03
2023-05-19T16:46:51.298Z,41.15
2023-05-19T16:50:26.958Z,41.04
2023-05-19T16:55:50.955Z,40.40
2023-05-19T16:58:17.640Z,40.82
2023-05-19T17:03:48.907Z,40.88
2023-05-19T17:06:19.170Z,41.12
2023-05-19T17:12:36.705Z,41.10
2023-05-19T17:18:10.832Z,41.66
2023-05-19T17:21:18.052Z,41.65
2023-05-19T17:24:04.821Z,41.39
2023-05-19T17:30:18.855Z,42.02
2023-05-19T17:33:02.003Z,42.18
2023-05-19T17:38:35.553Z,42.35
2023-05-19T17:47:06.434Z,42.17
2023-05-19T17:55:10.048Z,42.33
2023-05-19T17:57:44.751Z,42.45
2023-05-19T18:00:19.629Z,42.26
2023-05-19T18:02:54.359Z,42.31
2023-05-19T18:05:27.166Z,42.56
2023-05-19T18:14:08.190Z,42.20
2023-05-19T18:16:45.636Z,42.42
2023-05-19T18:19:14.559Z,42.21
2023-05-19T18:24:27.415Z,42.84
2023-05-19T18:26:57.890Z,42.65
2023-05-19T18:29:28.134Z,42.94
2023-05-19T18:32:07.790Z,43.15
2023-05-19T18:38:26.397Z,42.77
2023-05-19T18:41:19.089Z,42.92
2023-05-19T18:44:14.494Z,42.81
2023-05-19T18:47:01.440Z,43.24
2023-05-19T18:49:28.068Z,43.13
2023-05-19T18:51:54.640Z,43.19
2023-05-19T18:54:21.870Z,43.52
2023-05-19T18:56:48.506Z,43.40
2023-05-19T18:59:15.055Z,43.36
2023-05-19T19:01:42.877Z,43.71
2023-05-19T19:04:09.764Z,43.32
2023-05-19T19:06:36.499Z,43.35
2023-05-19T19:09:03.430Z,43.35
2023-05-19T19:11:30.038Z,42.95
2023-05-19T19:13:56.700Z,43.06
2023-05-19T19:16:23.552Z,43.37
2023-05-19T19:18:50.321Z,43.18
2023-05-19T19:21:19.278Z,43.08
2023-05-19T19:23:46.118Z,43.30
2023-05-19T19:26:12.700Z,43.21
2023-05-19T19:28:39.296Z,43.11
2023-05-19T19:31:05.941Z,43.09
2023-05-19T19:33:32.671Z,43.53
2023-05-19T19:35:59.288Z,43.54
2023-05-19T19:38:25.918Z,43.63
2023-05-19T19:40:52.628Z,44.10
2023-05-19T19:43:19.262Z,43.83
2023-05-19T19:45:45.905Z,44.03
2023-05-19T19:48:12.529Z,43.66
2023-05-19T19:50:39.167Z,43.73
2023-05-19T19:53:05.730Z,43.89
2023-05-19T19:55:32.485Z,44.02
2023-05-19T19:57:59.060Z,43.93
2023-05-19T20:00:25.926Z,43.70
2023-05-19T20:03:04.288Z,43.72
2023-05-19T20:05:32.526Z,43.80
2023-05-19T20:07:59.280Z,43.52
2023-05-19T20:10:25.975Z,43.36
2023-05-19T20:12:52.737Z,43.54
2023-05-19T20:15:19.363Z,43.31
2023-05-19T20:17:46.267Z,43.32
2023-05-19T20:20:13.337Z,43.25
2023-05-19T20:22:40.216Z,43.49
2023-05-19T20:25:07.298Z,43.20
2023-05-19T20:27:33.967Z,43.02
2023-05-19T20:30:00.772Z,42.99
2023-05-19T20:32:27.537Z,42.97
2023-05-19T20:34:54.204Z,43.08
2023-05-19T20:37:22.131Z,42.92
2023-05-19T20:39:48.865Z,43.17
2023-05-19T20:42:15.574Z,42.72
2023-05-19T20:44:42.517Z,42.61
2023-05-19T20:47:09.146Z,42.87
2023-05-19T20:49:35.773Z,42.54
2023-05-19T20:52:02.464Z,42.56
2023-05-19T20:54:29.039Z,42.61
2023-05-19T20:56:55.767Z,42.53
2023-05-19T20:59:22.378Z,42.27
2023-05-19T21:01:49.061Z,42.55
2023-05-19T21:04:15.738Z,42.57
2023-05-19T21:06:42.542Z,42.53
2023-05-19T21:09:10.515Z,42.32
2023-05-19T21:11:37.124Z,42.34
2023-05-19T21:14:04.298Z,42.10
2023-05-19T21:16:31.906Z,42.01
2023-05-19T21:18:58.553Z,42.26
2023-05-19T21:21:28.375Z,42.22
2023-05-19T21:23:54.990Z,41.97
2023-05-19T21:26:22.117Z,41.95
2023-05-19T21:28:48.759Z,42.03
2023-05-19T21:31:15.476Z,42.31
2023-05-19T21:33:42.158Z,42.01
2023-05-19T21:36:08.747Z,42.10
2023-05-19T21:38:35.318Z,41.90
2023-05-19T21:41:01.992Z,42.19
2023-05-19T21:43:28.606Z,42.05
2023-05-19T21:45:55.469Z,41.80
2023-05-19T21:48:22.113Z,41.92
2023-05-19T21:50:55.358Z,41.83
2023-05-19T21:53:22.097Z,42.04
2023-05-19T21:55:48.859Z,41.71
2023-05-19T21:58:15.507Z,41.79
2023-05-19T22:00:42.192Z,41.85
2023-05-19T22:03:08.932Z,41.82
2023-05-19T22:05:38.066Z,41.60
2023-05-19T22:08:04.907Z,41.59
2023-05-19T22:10:32.048Z,41.80
2023-05-19T22:12:58.845Z,41.40
2023-05-19T22:15:26.636Z,41.64
2023-05-19T22:17:53.304Z,41.60
2023-05-19T22:20:20.052Z,41.54
2023-05-19T22:22:46.595Z,41.51
2023-05-19T22:25:13.249Z,41.38
2023-05-19T22:27:39.901Z,41.51
2023-05-19T22:30:07.352Z,41.55
2023-05-19T22:32:35.134Z,41.53
2023-05-19T22:35:01.925Z,41.62
2023-05-19T22:37:29.041Z,41.63
2023-05-19T22:39:55.694Z,41.39
2023-05-19T22:42:22.320Z,41.45
2023-05-19T22:44:48.982Z,41.36
2023-05-19T22:47:15.926Z,41.44
2023-05-19T22:49:42.994Z,41.30
2023-05-19T22:52:11.017Z,41.42
2023-05-19T22:54:38.148Z,41.34
2023-05-19T22:57:05.200Z,41.34
2023-05-19T22:59:31.862Z,41.46
2023-05-19T23:01:58.449Z,41.45
2023-05-19T23:04:25.180Z,41.44
2023-05-19T23:06:51.916Z,41.41
2023-05-19T23:09:18.566Z,41.59
2023-05-19T23:11:46.063Z,41.43
2023-05-19T23:14:12.678Z,41.16
2023-05-19T23:16:39.319Z,41.21
2023-05-19T23:19:06.228Z,41.40
2023-05-19T23:21:33.138Z,41.39
2023-05-19T23:24:00.024Z,41.17
2023-05-19T23:26:27.048Z,41.22
2023-05-19T23:28:53.614Z,41.08
2023-05-19T23:31:20.331Z,41.15
2023-05-19T23:33:47.032Z,41.32
2023-05-19T23:36:13.776Z,41.16
2023-05-19T23:38:40.387Z,41.20
2023-05-19T23:41:07.106Z,41.23
2023-05-19T23:43:33.828Z,41.22
2023-05-19T23:46:01.185Z,41.25
2023-05-19T23:48:31.500Z,40.94
2023-05-19T23:50:58.805Z,41.20
2023-05-19T23:53:25.590Z,41.24
2023-05-19T23:55:52.455Z,41.02
2023-05-19T23:58:19.257Z,41.14
